Time;durP1;ratioP1;P1;durP2;ratioP2;P2;SDS_P1;SDS_P2;PMS_P1;PMS_P2;Temp;Humidity;BMP_temperature;BMP_pressure;BME280_temperature;BME280_humidity;BME280_pressure;Samples;Min_cycle;Max_cycle;Signal;HPM_P1;HPM_P2
2023/01/05 00:01:28;;;;;;;9.18;4.63;;;;;;;10.87;100.00;101246.84;6094724;23;20033;-76
2023/01/05 00:03:54;;;;;;;7.15;4.75;;;;;;;10.97;100.00;101270.94;6108122;23;20075;-76
2023/01/05 00:06:21;;;;;;;4.30;4.00;;;;;;;11.03;100.00;101270.66;6091277;23;20029;-78
2023/01/05 00:08:48;;;;;;;4.72;4.32;;;;;;;10.34;100.00;101173.94;6114332;23;20051;-76
2023/01/05 00:22:29;;;;;;;9.73;4.50;;;;;;;10.99;100.00;101292.72;6084930;23;20431;-76
2023/01/05 00:24:59;;;;;;;5.78;5.20;;;;;;;10.93;100.00;101287.75;6113201;23;20088;-76
2023/01/05 00:27:35;;;;;;;5.05;4.63;;;;;;;10.89;100.00;101289.63;6114145;23;20037;-77
2023/01/05 00:30:03;;;;;;;7.07;4.90;;;;;;;10.33;100.00;101183.59;6088177;23;20022;-75
2023/01/05 00:32:29;;;;;;;8.75;5.25;;;;;;;10.40;100.00;101199.91;6117992;23;20204;-76
2023/01/05 00:34:57;;;;;;;9.68;4.80;;;;;;;10.20;100.00;101174.50;6101930;23;20104;-76
2023/01/05 00:37:29;;;;;;;5.45;4.68;;;;;;;10.97;100.00;101298.03;6067668;23;20022;-76
2023/01/05 00:39:55;;;;;;;6.20;4.95;;;;;;;10.57;100.00;101254.28;6117720;23;20022;-77
2023/01/05 00:42:22;;;;;;;5.38;4.82;;;;;;;10.51;100.00;101238.81;6117475;23;20023;-76
2023/01/05 00:44:48;;;;;;;7.45;5.07;;;;;;;10.52;100.00;101243.13;6104980;23;20451;-78
2023/01/05 00:47:15;;;;;;;5.95;5.43;;;;;;;10.70;100.00;101265.94;6087069;23;20074;-76
2023/01/05 00:49:41;;;;;;;5.18;4.70;;;;;;;10.67;100.00;101260.00;6115844;23;20009;-77
2023/01/05 00:52:08;;;;;;;10.38;5.07;;;;;;;10.83;100.00;101316.16;6123796;23;20312;-75
2023/01/05 00:54:34;;;;;;;4.22;4.03;;;;;;;10.17;100.00;101156.28;6115802;23;20075;-75
2023/01/05 00:57:01;;;;;;;4.53;4.13;;;;;;;9.96;100.00;101137.06;6107789;23;20037;-76
2023/01/05 00:59:27;;;;;;;7.28;4.40;;;;;;;10.81;100.00;101277.78;6114398;23;20411;-77
2023/01/05 01:01:54;;;;;;;4.65;4.10;;;;;;;10.45;100.00;101228.59;6125233;23;20022;-76
2023/01/05 01:04:21;;;;;;;7.28;4.72;;;;;;;10.41;100.00;101235.72;6115361;23;20020;-77
2023/01/05 01:06:48;;;;;;;5.15;4.75;;;;;;;10.51;100.00;101270.31;6112982;23;20064;-77
2023/01/05 01:09:15;;;;;;;7.00;4.97;;;;;;;10.12;100.00;101201.06;6088814;23;20025;-77
2023/01/05 01:11:41;;;;;;;7.65;4.57;;;;;;;10.37;100.00;101248.13;6104683;23;20017;-77
2023/01/05 01:14:10;;;;;;;6.30;4.80;;;;;;;10.68;100.00;101301.91;6088465;23;20034;-77
2023/01/05 01:16:36;;;;;;;4.47;4.00;;;;;;;10.68;100.00;101306.31;6094026;23;20431;-76
2023/01/05 01:19:02;;;;;;;4.93;4.53;;;;;;;10.64;100.00;101300.34;6115614;23;20033;-77
2023/01/05 01:21:31;;;;;;;5.95;4.95;;;;;;;8.91;100.00;101018.25;6090743;23;20030;-75
2023/01/05 01:23:57;;;;;;;5.32;4.13;;;;;;;10.59;100.00;101294.44;6120165;23;20032;-77
2023/01/05 01:26:24;;;;;;;4.80;4.50;;;;;;;10.55;100.00;101303.38;6116908;23;21865;-76
2023/01/05 01:28:50;;;;;;;11.27;5.28;;;;;;;10.58;100.00;101305.84;6114843;23;20028;-76
2023/01/05 01:31:17;;;;;;;4.40;4.20;;;;;;;9.94;100.00;101213.19;6116190;23;20081;-76
2023/01/05 01:33:45;;;;;;;5.43;4.63;;;;;;;10.34;100.00;101278.88;6118166;23;20462;-77
2023/01/05 01:36:12;;;;;;;5.30;4.82;;;;;;;9.81;100.00;101208.50;6115078;23;20013;-75
2023/01/05 01:38:38;;;;;;;5.72;4.25;;;;;;;9.68;100.00;101200.25;6126669;23;20685;-76
2023/01/05 01:41:05;;;;;;;7.65;5.10;;;;;;;10.47;100.00;101313.34;6116193;23;20029;-78
2023/01/05 01:43:51;;;;;;;4.35;4.15;;;;;;;10.43;100.00;101317.00;6113528;23;20030;-77
2023/01/05 01:46:19;;;;;;;5.80;5.22;;;;;;;10.10;100.00;101267.59;6109150;23;20077;-75
2023/01/05 01:48:48;;;;;;;9.25;4.63;;;;;;;10.46;100.00;101322.13;6090894;23;20961;-76
2023/01/05 01:51:21;;;;;;;4.70;4.40;;;;;;;9.28;100.00;101138.97;6113181;23;20241;-75
2023/01/05 01:53:50;;;;;;;;;;;;;;;10.37;100.00;101332.06;6120457;23;20467;-75
2023/01/05 01:56:19;;;;;;;5.43;4.88;;;;;;;10.38;100.00;101325.94;6111911;23;20527;-75
2023/01/05 01:58:46;;;;;;;6.07;4.97;;;;;;;9.92;100.00;101240.34;6084397;23;20122;-75
2023/01/05 02:01:13;;;;;;;7.38;4.78;;;;;;;10.05;100.00;101287.94;6068482;23;20447;-76
2023/01/05 02:03:40;;;;;;;5.03;4.70;;;;;;;10.07;100.00;101271.22;6112794;23;20040;-74
2023/01/05 02:06:06;;;;;;;5.93;4.97;;;;;;;10.40;100.00;101335.50;6086672;23;20049;-78
2023/01/05 02:08:34;;;;;;;6.47;5.00;;;;;;;10.08;100.00;101295.66;6101199;23;20022;-76
2023/01/05 02:11:05;;;;;;;5.82;4.07;;;;;;;10.35;100.00;101344.41;6074111;23;20029;-76
2023/01/05 02:13:43;;;;;;;15.52;5.75;;;;;;;10.34;100.00;101347.09;6118723;23;20025;-77
2023/01/05 02:16:28;;;;;;;8.57;4.63;;;;;;;10.35;100.00;101354.06;6112258;23;20104;-76
2023/01/05 02:19:04;;;;;;;6.57;4.03;;;;;;;10.33;100.00;101348.88;6111244;23;20172;-77
2023/01/05 02:21:48;;;;;;;5.35;4.85;;;;;;;9.82;100.00;101260.00;6082926;23;20026;-76
2023/01/05 02:24:42;;;;;;;9.77;4.40;;;;;;;10.31;100.00;101347.22;6112027;23;20026;-77
2023/01/05 02:27:33;;;;;;;6.45;4.43;;;;;;;9.73;100.00;101256.00;6065251;23;20013;-75
2023/01/05 02:30:37;;;;;;;6.68;4.60;;;;;;;10.31;100.00;101344.59;6113557;23;20086;-76
2023/01/05 02:33:21;;;;;;;4.93;4.53;;;;;;;10.25;100.00;101348.28;6110831;23;20080;-76
2023/01/05 02:36:11;;;;;;;5.93;4.20;;;;;;;9.91;100.00;101318.16;6112469;23;20358;-76
2023/01/05 02:39:11;;;;;;;5.35;4.43;;;;;;;9.79;100.00;101290.66;6094754;23;20025;-76
2023/01/05 02:41:44;;;;;;;6.85;4.32;;;;;;;10.19;100.00;101345.91;6113426;23;20014;-76
2023/01/05 02:44:16;;;;;;;10.98;5.18;;;;;;;9.87;100.00;101311.34;6122435;23;20157;-76
2023/01/05 02:46:44;;;;;;;6.20;4.80;;;;;;;10.26;100.00;101363.09;6120633;23;20024;-76
2023/01/05 02:49:15;;;;;;;5.80;5.15;;;;;;;9.81;100.00;101329.94;6088505;23;20115;-75
2023/01/05 02:51:48;;;;;;;4.63;4.32;;;;;;;9.54;100.00;101279.41;6113940;23;20013;-78
2023/01/05 02:54:23;;;;;;;6.28;5.78;;;;;;;10.06;100.00;101345.53;6114588;23;20079;-77
2023/01/05 02:56:57;;;;;;;9.05;4.47;;;;;;;9.57;100.00;101255.72;6115933;23;20009;-77
2023/01/05 02:59:46;;;;;;;12.55;5.20;;;;;;;10.22;100.00;101379.88;6093070;23;20519;-76
2023/01/05 03:02:31;;;;;;;8.25;5.00;;;;;;;8.72;100.00;101129.78;6067583;23;20291;-76
2023/01/05 03:05:13;;;;;;;4.55;4.25;;;;;;;9.50;100.00;101256.88;6106081;23;20263;-78
2023/01/05 03:07:42;;;;;;;5.97;5.27;;;;;;;9.86;100.00;101322.75;6116593;23;20049;-77
2023/01/05 03:15:57;;;;;;;8.10;4.70;;;;;;;9.38;100.00;101237.25;6091377;23;20274;-77
2023/01/05 03:18:25;;;;;;;4.43;4.20;;;;;;;9.92;100.00;101319.88;6117833;23;20444;-74
2023/01/05 03:20:53;;;;;;;4.50;4.10;;;;;;;10.07;100.00;101362.16;6129951;23;20025;-76
2023/01/05 03:37:47;;;;;;;6.00;4.32;;;;;;;9.73;100.00;101290.06;6112992;23;20024;-76
2023/01/05 03:40:20;;;;;;;9.20;4.75;;;;;;;10.14;100.00;101376.72;6111870;23;20427;-75
2023/01/05 03:42:47;;;;;;;10.93;4.45;;;;;;;6.95;100.00;100887.84;6115855;23;20026;-76
2023/01/05 03:45:16;;;;;;;6.38;4.90;;;;;;;8.50;100.00;101120.13;6114034;23;20022;-75
2023/01/05 03:47:42;;;;;;;4.75;4.45;;;;;;;9.31;100.00;101254.13;6119397;23;20479;-75
2023/01/05 03:50:09;;;;;;;9.43;4.93;;;;;;;9.72;100.00;101353.84;6087119;23;20022;-75
2023/01/05 03:52:35;;;;;;;19.95;4.45;;;;;;;9.74;100.00;101308.34;6076584;23;20021;-76
2023/01/05 03:55:02;;;;;;;4.93;4.55;;;;;;;9.42;100.00;101267.66;6113387;23;20090;-75
2023/01/05 03:57:28;;;;;;;5.88;5.13;;;;;;;8.83;100.00;101173.88;6104244;23;20013;-75
2023/01/05 03:59:54;;;;;;;8.68;4.45;;;;;;;10.16;100.00;101390.63;6112565;23;20006;-75
2023/01/05 04:02:21;;;;;;;4.93;4.55;;;;;;;10.14;100.00;101413.44;6101360;23;20029;-75
2023/01/05 04:04:47;;;;;;;4.65;4.35;;;;;;;9.94;100.00;101369.63;6069547;23;20010;-76
2023/01/05 04:07:14;;;;;;;6.57;5.03;;;;;;;9.31;100.00;101238.41;6106525;23;20026;-75
2023/01/05 04:09:40;;;;;;;4.13;3.92;;;;;;;9.95;100.00;101350.38;6105914;23;20166;-76
2023/01/05 04:12:06;;;;;;;13.02;5.40;;;;;;;10.10;100.00;101398.72;6085197;23;20057;-75
2023/01/05 04:14:33;;;;;;;12.07;4.97;;;;;;;9.86;100.00;101372.56;6108534;23;20255;-76
2023/01/05 04:16:59;;;;;;;4.75;4.35;;;;;;;9.98;100.00;101384.31;6113543;23;20034;-75
2023/01/05 04:19:26;;;;;;;6.15;4.45;;;;;;;8.83;100.00;101207.91;6103647;23;20029;-75
2023/01/05 04:21:52;;;;;;;4.57;4.30;;;;;;;8.74;100.00;101189.03;6091616;23;20457;-76
2023/01/05 04:24:18;;;;;;;7.60;4.70;;;;;;;9.06;100.00;101254.16;6099237;23;20036;-76
2023/01/05 04:26:45;;;;;;;8.93;4.97;;;;;;;9.83;100.00;101377.91;6113301;23;20173;-78
2023/01/05 04:29:12;;;;;;;4.50;4.30;;;;;;;9.55;100.00;101338.78;6074129;23;20026;-75
2023/01/05 04:31:38;;;;;;;6.68;4.45;;;;;;;9.47;100.00;101327.75;6111878;23;20022;-75
2023/01/05 04:34:05;;;;;;;4.85;4.55;;;;;;;8.04;100.00;101100.84;6117265;23;20021;-76
2023/01/05 04:36:31;;;;;;;5.07;4.78;;;;;;;8.24;100.00;101133.25;6115175;23;20060;-75
2023/01/05 04:38:58;;;;;;;5.05;4.65;;;;;;;9.51;100.00;101379.97;6107843;23;20029;-76
2023/01/05 04:41:24;;;;;;;5.85;4.50;;;;;;;9.11;100.00;101300.22;6097040;23;20025;-77
2023/01/05 04:43:50;;;;;;;16.40;5.10;;;;;;;8.97;100.00;101281.53;6088937;23;20548;-76
2023/01/05 04:46:17;;;;;;;5.65;4.85;;;;;;;8.72;100.00;101243.19;6115689;23;20193;-76
2023/01/05 04:48:43;;;;;;;5.50;5.00;;;;;;;9.03;100.00;101299.66;6127447;23;20096;-77
2023/01/05 04:51:10;;;;;;;4.25;3.95;;;;;;;9.68;100.00;101396.81;6116368;23;20017;-75
2023/01/05 04:53:36;;;;;;;6.32;4.60;;;;;;;9.70;100.00;101400.25;6119477;23;20112;-78
2023/01/05 04:56:03;;;;;;;7.35;4.93;;;;;;;9.69;100.00;101414.28;6088231;23;20096;-77
2023/01/05 04:58:29;;;;;;;6.47;4.93;;;;;;;8.37;100.00;101207.75;6120294;23;20154;-77
2023/01/05 05:00:56;;;;;;;4.47;4.25;;;;;;;9.49;100.00;101400.13;6117639;23;20025;-75
2023/01/05 05:03:22;;;;;;;5.75;4.53;;;;;;;9.66;100.00;101399.53;6112828;23;20039;-76
2023/01/05 05:05:53;;;;;;;4.80;4.40;;;;;;;8.65;100.00;101254.75;6064453;23;20090;-76
2023/01/05 05:08:19;;;;;;;17.77;4.68;;;;;;;9.47;100.00;101374.91;6122042;23;20055;-76
2023/01/05 05:10:46;;;;;;;5.28;4.03;;;;;;;9.41;100.00;101380.38;6109959;23;20105;-77
2023/01/05 05:13:12;;;;;;;13.23;5.40;;;;;;;8.65;100.00;101275.69;6125239;23;20078;-75
2023/01/05 05:15:39;;;;;;;5.32;5.03;;;;;;;8.46;100.00;101219.69;6106748;23;20100;-77
2023/01/05 05:18:05;;;;;;;13.73;5.00;;;;;;;9.45;100.00;101393.28;6071821;23;20091;-77
2023/01/05 05:20:35;;;;;;;4.20;3.95;;;;;;;9.35;100.00;101391.91;6116875;23;20459;-76
2023/01/05 05:23:02;;;;;;;12.07;4.57;;;;;;;8.70;100.00;101275.53;6095872;23;20052;-76
2023/01/05 05:25:28;;;;;;;5.82;5.38;;;;;;;8.97;100.00;101310.34;6098887;23;20047;-76
2023/01/05 05:27:55;;;;;;;5.63;4.68;;;;;;;9.13;100.00;101352.53;6115684;23;20329;-75
2023/01/05 05:30:21;;;;;;;16.17;14.98;;;;;;;9.64;100.00;101427.56;6082705;23;20851;-76
2023/01/05 05:32:51;;;;;;;6.90;4.95;;;;;;;9.47;100.00;101404.56;6015964;23;20444;-76
2023/01/05 05:35:17;;;;;;;4.05;3.85;;;;;;;8.85;100.00;101313.41;6113520;23;20030;-77
2023/01/05 05:37:44;;;;;;;10.23;5.03;;;;;;;8.75;100.00;101329.41;6116921;23;20115;-76
2023/01/05 05:40:11;;;;;;;5.75;4.95;;;;;;;9.48;100.00;101414.16;6116021;23;20040;-76
2023/01/05 05:42:37;;;;;;;6.30;4.68;;;;;;;9.47;100.00;101406.34;6099168;23;20029;-77
2023/01/05 05:45:04;;;;;;;9.35;4.32;;;;;;;9.49;100.00;101426.34;6090961;23;20024;-77
2023/01/05 05:47:31;;;;;;;6.80;4.57;;;;;;;8.05;100.00;101169.66;6109720;23;20037;-76
2023/01/05 05:49:57;;;;;;;6.20;4.18;;;;;;;8.98;100.00;101330.41;6118755;23;20045;-75
2023/01/05 05:52:23;;;;;;;5.13;4.50;;;;;;;9.58;100.00;101446.97;6116134;23;20035;-77
2023/01/05 05:54:50;;;;;;;16.25;5.25;;;;;;;8.88;100.00;101327.25;6113033;23;20054;-76
2023/01/05 05:57:16;;;;;;;15.82;5.05;;;;;;;8.44;100.00;101251.13;6117248;23;20055;-76
2023/01/05 05:59:43;;;;;;;5.07;4.30;;;;;;;9.30;100.00;101405.19;6122677;23;20088;-76
2023/01/05 06:02:09;;;;;;;10.80;4.68;;;;;;;8.84;100.00;101349.19;6120767;23;20223;-77
2023/01/05 06:04:35;;;;;;;5.22;4.65;;;;;;;9.44;100.00;101445.75;6093990;23;20037;-77
2023/01/05 06:07:02;;;;;;;4.93;4.53;;;;;;;9.46;100.00;101434.31;6115295;23;20029;-76
2023/01/05 06:09:28;;;;;;;4.70;4.40;;;;;;;9.76;100.00;101492.63;6088312;23;20029;-76
2023/01/05 06:11:55;;;;;;;10.45;4.93;;;;;;;8.69;100.00;101310.47;6117820;23;20033;-75
2023/01/05 06:14:21;;;;;;;12.40;4.63;;;;;;;9.58;100.00;101465.31;6108984;23;20022;-77
2023/01/05 06:16:48;;;;;;;10.55;4.78;;;;;;;9.80;100.00;101498.59;6094582;23;20492;-75
2023/01/05 06:19:14;;;;;;;7.95;5.53;;;;;;;9.38;100.00;101431.09;6119337;23;20131;-75
2023/01/05 06:21:41;;;;;;;8.60;5.10;;;;;;;9.55;100.00;101461.94;6122340;23;20002;-76
2023/01/05 06:24:07;;;;;;;9.48;4.50;;;;;;;9.15;100.00;101408.34;6118912;23;20090;-75
2023/01/05 06:26:34;;;;;;;11.60;5.90;;;;;;;9.37;100.00;101453.81;6114748;23;20036;-75
2023/01/05 06:29:00;;;;;;;12.40;5.25;;;;;;;8.87;100.00;101337.75;6090664;23;20103;-78
2023/01/05 06:31:26;;;;;;;11.65;5.78;;;;;;;9.77;100.00;101502.19;6091067;23;20106;-75
2023/01/05 06:33:53;;;;;;;5.03;4.72;;;;;;;9.47;100.00;101445.66;6114842;23;20025;-75
2023/01/05 06:36:19;;;;;;;6.68;4.07;;;;;;;9.09;100.00;101395.47;6107066;23;20090;-76
2023/01/05 06:38:46;;;;;;;5.55;4.30;;;;;;;9.33;100.00;101438.28;6096977;23;20023;-74
2023/01/05 06:41:12;;;;;;;19.27;4.45;;;;;;;8.53;100.00;101307.50;6117083;23;20045;-76
2023/01/05 06:43:38;;;;;;;21.58;5.72;;;;;;;9.31;100.00;101447.94;6114993;23;20045;-74
2023/01/05 06:46:05;;;;;;;4.57;4.28;;;;;;;8.38;100.00;101299.25;6066982;23;20083;-75
2023/01/05 06:48:31;;;;;;;5.00;4.55;;;;;;;9.24;100.00;101441.19;6104413;23;20021;-76
2023/01/05 06:50:58;;;;;;;19.10;4.32;;;;;;;8.99;100.00;101401.00;6113319;23;20384;-77
2023/01/05 06:53:24;;;;;;;9.57;5.30;;;;;;;8.98;100.00;101399.31;6093386;23;20209;-77
2023/01/05 06:55:50;;;;;;;5.82;4.70;;;;;;;8.76;100.00;101353.84;6065497;23;20026;-77
2023/01/05 06:58:17;;;;;;;5.53;4.85;;;;;;;9.35;100.00;101455.63;6118019;23;20009;-76
2023/01/05 07:00:43;;;;;;;4.38;4.18;;;;;;;9.77;100.00;101524.94;6108725;23;20032;-76
2023/01/05 07:03:12;;;;;;;7.65;4.65;;;;;;;9.59;100.00;101502.84;6112283;23;20044;-76
2023/01/05 07:05:40;;;;;;;4.78;4.53;;;;;;;9.32;100.00;101484.56;6110315;23;20038;-75
2023/01/05 07:08:06;;;;;;;4.85;4.45;;;;;;;9.09;100.00;101434.75;6113821;23;20028;-76
2023/01/05 07:10:33;;;;;;;19.70;5.95;;;;;;;9.27;100.00;101462.91;6108409;23;20369;-78
2023/01/05 07:12:59;;;;;;;11.65;4.38;;;;;;;9.12;100.00;101435.50;6113500;23;20021;-76
2023/01/05 07:15:26;;;;;;;5.18;4.88;;;;;;;9.26;100.00;101455.09;6081512;23;20067;-77
2023/01/05 07:17:52;;;;;;;21.00;5.38;;;;;;;9.70;100.00;101531.28;6089133;23;20049;-76
2023/01/05 07:20:18;;;;;;;5.22;4.72;;;;;;;9.54;100.00;101502.16;6063106;23;20037;-77
2023/01/05 07:22:45;;;;;;;15.80;4.93;;;;;;;8.82;100.00;101399.84;6085355;23;20398;-76
2023/01/05 07:25:11;;;;;;;12.60;5.38;;;;;;;8.23;100.00;101307.59;6085268;23;20058;-77
2023/01/05 07:27:38;;;;;;;8.20;5.25;;;;;;;8.82;100.00;101418.19;6109247;23;20514;-76
2023/01/05 07:30:05;;;;;;;4.78;4.20;;;;;;;9.28;100.00;101497.81;6088742;23;20075;-76
2023/01/05 07:32:31;;;;;;;7.95;4.40;;;;;;;9.31;100.00;101484.63;6091346;23;20075;-77
2023/01/05 07:34:58;;;;;;;9.00;5.07;;;;;;;8.24;100.00;101304.09;6086029;23;20030;-77
2023/01/05 07:37:24;;;;;;;7.00;4.97;;;;;;;9.69;100.00;101547.94;6092573;23;20021;-76
2023/01/05 07:39:51;;;;;;;7.90;5.15;;;;;;;8.88;100.00;101425.81;6098978;23;20029;-76
2023/01/05 07:42:18;;;;;;;10.07;4.55;;;;;;;9.44;100.00;101526.97;6104904;23;20010;-75
2023/01/05 07:44:44;;;;;;;6.32;4.90;;;;;;;9.55;100.00;101523.06;6112222;23;20013;-76
2023/01/05 07:47:11;;;;;;;6.68;5.03;;;;;;;9.80;100.00;101553.66;6114609;23;20504;-75
2023/01/05 07:49:45;;;;;;;18.35;6.03;;;;;;;9.04;100.00;101429.66;6111151;23;20033;-75
2023/01/05 07:52:11;;;;;;;7.07;5.53;;;;;;;9.27;100.00;101455.03;6085610;23;20085;-75
2023/01/05 07:54:37;;;;;;;4.93;4.57;;;;;;;9.33;100.00;101481.03;6113115;23;20067;-75
2023/01/05 07:57:04;;;;;;;11.13;5.13;;;;;;;8.94;100.00;101417.78;6086885;23;20916;-73
2023/01/05 07:59:30;;;;;;;4.88;4.53;;;;;;;9.61;100.00;101522.00;6093931;23;20041;-76
2023/01/05 08:01:57;;;;;;;10.35;5.30;;;;;;;9.31;100.00;101474.13;6122290;23;20027;-76
2023/01/05 08:04:24;;;;;;;6.63;4.18;;;;;;;9.29;100.00;101483.81;6089545;23;20032;-73
2023/01/05 08:06:51;;;;;;;7.22;5.70;;;;;;;9.91;100.00;101579.50;6115633;23;20667;-73
2023/01/05 08:12:02;;;;;;;13.38;5.00;;;;;;;9.40;100.00;101500.00;6106170;23;20025;-75
2023/01/05 08:14:29;;;;;;;5.57;5.00;;;;;;;9.26;100.00;101495.25;6104002;23;20083;-74
2023/01/05 08:16:55;;;;;;;5.25;4.85;;;;;;;9.06;100.00;101448.78;6086080;23;20047;-74
2023/01/05 08:19:21;;;;;;;19.30;5.00;;;;;;;9.96;100.00;101604.66;6117185;23;20185;-74
2023/01/05 08:21:48;;;;;;;6.32;5.70;;;;;;;9.30;100.00;101477.66;6090497;23;20551;-74
2023/01/05 08:24:17;;;;;;;6.85;4.20;;;;;;;9.81;100.00;101578.13;6084353;23;20031;-74
2023/01/05 08:26:44;;;;;;;5.22;4.60;;;;;;;9.25;100.00;101484.81;6112681;23;20248;-74
2023/01/05 08:29:10;;;;;;;9.98;5.63;;;;;;;9.72;100.00;101560.94;6091139;23;20035;-74
2023/01/05 08:31:38;;;;;;;5.38;4.97;;;;;;;10.03;100.00;101618.41;6089171;23;20358;-75
2023/01/05 08:34:04;;;;;;;9.68;4.88;;;;;;;10.03;100.00;101607.06;6112391;23;20022;-74
2023/01/05 08:36:32;;;;;;;6.28;5.15;;;;;;;10.02;100.00;101607.97;6072756;23;20503;-73
2023/01/05 08:39:00;;;;;;;12.55;4.55;;;;;;;9.08;100.00;101457.44;6120969;23;20025;-74
2023/01/05 08:41:30;;;;;;;7.07;4.88;;;;;;;9.66;100.00;101542.78;6114627;23;20029;-76
2023/01/05 08:43:58;;;;;;;6.30;4.93;;;;;;;9.23;100.00;101468.31;6090008;23;20014;-74
2023/01/05 08:46:27;;;;;;;14.40;5.00;;;;;;;9.54;100.00;101524.00;6113695;23;20071;-74
2023/01/05 08:48:56;;;;;;;9.20;5.95;;;;;;;9.90;100.00;101589.16;6064611;23;20029;-75
2023/01/05 08:51:23;;;;;;;6.18;4.70;;;;;;;9.86;100.00;101598.03;6090253;23;20382;-74
2023/01/05 08:53:49;;;;;;;9.77;5.32;;;;;;;10.15;100.00;101627.63;6113074;23;20025;-75
2023/01/05 08:56:16;;;;;;;15.48;6.45;;;;;;;10.19;100.00;101637.09;6121750;23;20646;-75
2023/01/05 08:58:43;;;;;;;8.85;5.55;;;;;;;10.23;100.00;101638.69;6090269;23;20041;-74
2023/01/05 09:01:11;;;;;;;5.13;4.82;;;;;;;9.66;100.00;101548.91;6116019;23;20099;-74
2023/01/05 09:03:39;;;;;;;5.55;5.05;;;;;;;10.21;100.00;101642.28;6115832;23;20036;-76
2023/01/05 09:06:08;;;;;;;9.18;4.50;;;;;;;9.95;100.00;101588.97;6063341;23;20079;-74
2023/01/05 09:08:34;;;;;;;6.10;5.50;;;;;;;10.05;100.00;101627.06;6115199;23;20069;-73
2023/01/05 09:11:12;;;;;;;13.05;5.53;;;;;;;10.05;100.00;101610.50;6121280;23;20471;-73
2023/01/05 09:13:41;;;;;;;12.27;5.20;;;;;;;10.24;100.00;101645.63;6121404;23;20052;-77
2023/01/05 09:16:10;;;;;;;6.63;5.15;;;;;;;9.77;100.00;101569.50;6092300;23;20029;-76
2023/01/05 09:18:39;;;;;;;6.40;5.43;;;;;;;10.09;100.00;101620.81;6094880;23;20014;-75
2023/01/05 09:21:08;;;;;;;6.03;5.10;;;;;;;10.01;100.00;101595.78;6084237;23;20026;-75
2023/01/05 09:23:35;;;;;;;5.13;4.82;;;;;;;10.34;100.00;101651.44;6107486;23;20104;-75
2023/01/05 09:26:12;;;;;;;24.33;4.97;;;;;;;10.42;100.00;101659.03;6088136;23;20089;-74
2023/01/05 09:28:41;;;;;;;8.10;5.15;;;;;;;10.35;100.00;101674.16;6115188;23;20028;-74
2023/01/05 09:31:19;;;;;;;5.10;4.80;;;;;;;9.96;100.00;101580.19;6114227;23;20019;-75
2023/01/05 09:33:46;;;;;;;9.57;5.03;;;;;;;10.38;100.00;101671.41;6114552;23;20096;-74
2023/01/05 09:36:15;;;;;;;20.45;7.18;;;;;;;10.30;100.00;101663.84;6114284;23;20013;-74
2023/01/05 09:38:41;;;;;;;7.05;6.10;;;;;;;9.31;100.00;101488.09;6118201;23;20017;-75
2023/01/05 09:41:22;;;;;;;16.45;6.38;;;;;;;10.56;100.00;101678.66;6107580;23;20241;-75
2023/01/05 09:43:53;;;;;;;6.68;4.85;;;;;;;10.36;100.00;101675.84;6089289;23;20070;-75
2023/01/05 09:46:23;;;;;;;13.23;5.00;;;;;;;10.61;100.00;101682.88;6108773;23;20416;-75
2023/01/05 09:48:54;;;;;;;10.50;4.90;;;;;;;10.65;100.00;101697.59;6078843;23;20095;-74
2023/01/05 09:51:21;;;;;;;17.33;5.35;;;;;;;9.44;100.00;101506.88;6083428;23;20010;-75
2023/01/05 09:53:48;;;;;;;14.10;5.38;;;;;;;10.54;100.00;101690.09;6090207;23;20027;-74
2023/01/05 09:56:30;;;;;;;25.20;5.72;;;;;;;10.60;100.00;101710.00;6093604;23;20097;-75
2023/01/05 09:59:26;;;;;;;4.85;4.57;;;;;;;10.67;100.00;101715.00;6117114;23;20043;-75
2023/01/05 10:01:57;;;;;;;12.48;6.45;;;;;;;10.66;100.00;101721.13;6122291;23;20017;-75
2023/01/05 10:04:28;;;;;;;5.28;4.53;;;;;;;10.70;100.00;101735.88;6105244;23;20033;-75
2023/01/05 10:06:58;;;;;;;;;;;;;;;10.77;100.00;101729.50;6068103;23;20118;-75
2023/01/05 10:09:32;;;;;;;14.60;4.88;;;;;;;10.66;100.00;101723.75;6113981;23;19975;-74
2023/01/05 10:15:09;;;;;;;7.55;4.85;;;;;;;10.55;100.00;101689.19;6115527;23;20592;-73
2023/01/05 10:17:40;;;;;;;8.50;6.40;;;;;;;10.35;100.00;101654.03;6117786;23;20073;-74
2023/01/05 10:20:45;;;;;;;15.93;5.22;;;;;;;10.83;100.00;101749.44;6071909;23;20248;-74
2023/01/05 10:23:54;;;;;;;11.00;4.67;;;;;;;10.95;100.00;101727.13;5998673;23;20088;-74
2023/01/05 10:26:46;;;;;;;19.33;5.63;;;;;;;10.50;100.00;101652.63;6113168;23;20021;-74
2023/01/05 10:29:42;;;;;;;5.63;5.13;;;;;;;10.41;100.00;101655.56;6114732;23;20073;-75
2023/01/05 10:32:24;;;;;;;8.32;5.28;;;;;;;10.68;100.00;101716.69;6113318;23;20031;-74
2023/01/05 10:34:56;;;;;;;;;;;;;;;10.93;100.00;101723.69;6113745;23;20013;-73
2023/01/05 10:37:37;;;;;;;9.48;5.93;;;;;;;10.94;100.00;101730.63;6099630;23;20100;-74
2023/01/05 10:40:39;;;;;;;26.80;5.15;;;;;;;10.53;100.00;101656.91;6111640;23;20543;-74
2023/01/05 10:43:38;;;;;;;14.57;4.78;;;;;;;11.14;100.00;101730.75;6113502;23;20406;-74
2023/01/05 10:46:08;;;;;;;6.22;4.53;;;;;;;10.71;100.00;101671.97;6073934;23;20014;-74
2023/01/05 10:48:55;;;;;;;7.28;6.45;;;;;;;9.44;100.00;101477.19;6096692;23;20079;-77
2023/01/05 10:51:22;;;;;;;14.10;5.05;;;;;;;10.34;100.00;101636.56;6081767;23;20014;-75
2023/01/05 10:53:48;;;;;;;25.02;5.88;;;;;;;10.91;100.00;101726.38;6106617;23;20077;-76
2023/01/05 10:56:22;;;;;;;13.40;5.00;;;;;;;10.92;100.00;101729.84;6082055;23;20045;-76
2023/01/05 10:59:06;;;;;;;11.55;5.68;;;;;;;10.55;100.00;101681.31;6104766;23;20531;-75
2023/01/05 11:01:35;;;;;;;8.05;4.95;;;;;;;10.92;100.00;101758.72;6090979;23;20070;-74
2023/01/05 11:04:12;;;;;;;6.82;5.45;;;;;;;9.74;100.00;101561.72;6111459;23;20460;-75
2023/01/05 11:07:05;;;;;;;7.47;5.10;;;;;;;10.43;100.00;101664.25;6095961;23;20405;-75
2023/01/05 11:09:39;;;;;;;13.93;5.38;;;;;;;11.09;100.00;101750.25;6111792;23;20029;-74
2023/01/05 11:12:17;;;;;;;5.75;5.20;;;;;;;10.82;100.00;101689.94;6102921;23;20058;-75
2023/01/05 11:14:49;;;;;;;4.85;4.55;;;;;;;11.13;100.00;101750.06;6086155;23;20067;-75
2023/01/05 11:17:25;;;;;;;11.43;5.15;;;;;;;10.31;100.00;101610.44;6119715;23;20502;-75
2023/01/05 11:19:55;;;;;;;5.97;5.38;;;;;;;10.04;100.00;101564.19;6106708;23;20025;-75
2023/01/05 11:22:33;;;;;;;11.57;4.88;;;;;;;9.66;100.00;101482.50;6114121;23;20018;-75
2023/01/05 11:25:30;;;;;;;4.63;4.40;;;;;;;11.32;100.00;101758.09;6102074;23;20065;-74
2023/01/05 11:28:15;;;;;;;5.35;5.05;;;;;;;11.22;100.00;101766.38;6116120;23;20103;-75
2023/01/05 11:30:59;;;;;;;9.23;5.57;;;;;;;11.15;100.00;101756.13;6112572;23;20044;-74
2023/01/05 11:33:28;;;;;;;13.63;5.35;;;;;;;11.13;100.00;101751.84;6110564;23;20085;-74
2023/01/05 11:35:56;;;;;;;5.32;4.78;;;;;;;10.02;100.00;101586.97;6112052;23;20447;-74
2023/01/05 11:38:27;;;;;;;10.07;5.03;;;;;;;10.69;100.00;101691.31;6089913;23;20299;-75
2023/01/05 11:40:59;;;;;;;9.38;5.72;;;;;;;11.14;100.00;101741.25;6107163;23;20502;-74
2023/01/05 11:43:30;;;;;;;8.77;5.75;;;;;;;10.84;100.00;101682.00;6072718;23;20017;-75
2023/01/05 11:46:00;;;;;;;5.07;4.68;;;;;;;11.31;100.00;101750.28;6119538;23;20022;-75
2023/01/05 11:48:30;;;;;;;10.18;5.57;;;;;;;10.89;100.00;101695.81;6096745;23;20010;-74
2023/01/05 11:50:58;;;;;;;5.78;5.18;;;;;;;11.31;100.00;101766.06;6117528;23;20512;-75
2023/01/05 11:53:30;;;;;;;5.22;4.75;;;;;;;11.35;100.00;101749.25;6124234;23;20016;-74
2023/01/05 11:56:00;;;;;;;11.30;5.40;;;;;;;11.43;100.00;101746.34;6109377;23;20084;-73
2023/01/05 11:58:42;;;;;;;9.93;5.50;;;;;;;11.17;100.00;101709.63;6072482;23;20076;-73
2023/01/05 12:01:28;;;;;;;5.88;5.05;;;;;;;11.45;100.00;101765.53;6126688;23;20096;-75
2023/01/05 12:04:06;;;;;;;7.00;5.32;;;;;;;11.47;100.00;101764.53;6118698;23;20406;-75
2023/01/05 12:06:33;;;;;;;13.35;4.82;;;;;;;11.47;100.00;101761.91;6092127;23;20189;-74
2023/01/05 12:09:22;;;;;;;18.70;6.53;;;;;;;10.52;100.00;101610.56;6068626;23;20031;-74
2023/01/05 12:12:09;;;;;;;12.43;4.93;;;;;;;11.49;100.00;101753.97;6117687;23;20052;-75